Time;durP1;ratioP1;P1;durP2;ratioP2;P2;SDS_P1;SDS_P2;PMS_P1;PMS_P2;Temp;Humidity;BMP_temperature;BMP_pressure;BME280_temperature;BME280_humidity;BME280_pressure;Samples;Min_cycle;Max_cycle;Signal;HPM_P1;HPM_P2
2022/09/11 00:00:51;;;;;;;;;;;14.70;99.90;;;;;;4977711;28;19936;-81
2022/09/11 00:03:18;;;;;;;;;;;14.70;99.90;;;;;;4993818;28;19929;-82
2022/09/11 00:05:45;;;;;;;;;;;14.80;99.90;;;;;;4994001;28;20382;-81
2022/09/11 00:08:15;;;;;;;;;;;14.80;99.90;;;;;;5000939;28;19926;-82
2022/09/11 00:10:42;;;;;;;;;;;14.80;99.90;;;;;;4997767;28;19949;-80
2022/09/11 00:13:13;;;;;;;;;;;14.80;99.90;;;;;;4996747;28;20379;-79
2022/09/11 00:15:40;;;;;;;;;;;14.80;99.90;;;;;;5014394;28;20440;-80
2022/09/11 00:18:06;;;;;;;;;;;14.80;99.90;;;;;;4996015;28;19972;-79
2022/09/11 00:20:33;;;;;;;;;;;14.80;99.90;;;;;;4974232;28;20404;-80
2022/09/11 00:23:03;;;;;;;;;;;14.80;99.90;;;;;;4994598;28;19933;-80
2022/09/11 00:25:39;;;;;;;;;;;14.80;99.90;;;;;;5012287;28;19933;-79
2022/09/11 00:28:05;;;;;;;;;;;14.80;99.90;;;;;;4976490;28;20444;-80
2022/09/11 00:30:31;;;;;;;;;;;14.80;99.90;;;;;;4998767;28;19956;-79
2022/09/11 00:32:58;;;;;;;;;;;14.80;99.90;;;;;;4996687;28;19929;-79
2022/09/11 00:35:24;;;;;;;;;;;14.80;99.90;;;;;;5012542;28;19933;-80
2022/09/11 00:37:50;;;;;;;;;;;14.70;99.90;;;;;;4997219;28;19925;-79
2022/09/11 00:40:16;;;;;;;;;;;14.70;99.90;;;;;;5008532;28;19932;-79
2022/09/11 00:42:42;;;;;;;;;;;14.70;99.90;;;;;;4997578;28;20316;-80
2022/09/11 00:45:16;;;;;;;;;;;14.60;99.90;;;;;;4997417;28;19929;-81
2022/09/11 00:47:42;;;;;;;;;;;14.60;99.90;;;;;;4991696;28;19939;-80
2022/09/11 00:50:11;;;;;;;;;;;14.50;99.90;;;;;;4992923;28;20297;-80
2022/09/11 00:52:40;;;;;;;;;;;14.60;99.90;;;;;;5010156;28;19952;-80
2022/09/11 00:55:07;;;;;;;;;;;14.60;99.90;;;;;;5010505;28;19925;-80
2022/09/11 00:57:35;;;;;;;;;;;14.60;99.90;;;;;;4994089;28;19925;-80
2022/09/11 01:00:03;;;;;;;;;;;14.60;99.90;;;;;;5005749;28;19991;-81
2022/09/11 01:02:29;;;;;;;;;;;14.60;99.90;;;;;;4992874;28;19976;-81
2022/09/11 01:04:56;;;;;;;;;;;14.60;99.90;;;;;;4992257;28;19925;-80
2022/09/11 01:07:23;;;;;;;;;;;14.70;99.90;;;;;;5008391;28;20462;-80
2022/09/11 01:09:50;;;;;;;;;;;14.70;99.90;;;;;;4994001;28;20008;-80
2022/09/11 01:12:22;;;;;;;;;;;14.70;99.90;;;;;;5008601;28;19979;-80
2022/09/11 01:14:59;;;;;;;;;;;14.70;99.90;;;;;;4995100;28;19956;-80
2022/09/11 01:17:34;;;;;;;;;;;14.70;99.90;;;;;;4994332;28;20428;-81
2022/09/11 01:20:19;;;;;;;;;;;14.70;99.90;;;;;;5009252;28;19991;-80
2022/09/11 01:22:48;;;;;;;;;;;14.70;99.90;;;;;;5008300;28;19925;-80
2022/09/11 01:25:33;;;;;;;;;;;14.70;99.90;;;;;;4994699;28;19929;-81
2022/09/11 01:28:03;;;;;;;;;;;14.70;99.90;;;;;;5010297;28;19956;-80
2022/09/11 01:30:36;;;;;;;;;;;14.70;99.90;;;;;;4998883;28;19925;-81
2022/09/11 01:33:07;;;;;;;;;;;14.70;99.90;;;;;;4993941;28;19925;-80
2022/09/11 01:35:45;;;;;;;;;;;14.60;99.90;;;;;;5008931;28;19927;-80
2022/09/11 01:38:15;;;;;;;;;;;14.60;99.90;;;;;;4992452;28;20364;-80
2022/09/11 01:40:44;;;;;;;;;;;14.60;99.90;;;;;;4993712;28;20363;-80
2022/09/11 01:43:14;;;;;;;;;;;14.60;99.90;;;;;;4992366;28;19929;-80
2022/09/11 01:45:41;;;;;;;;;;;14.60;99.90;;;;;;4993509;28;19978;-81
2022/09/11 01:48:07;;;;;;;;;;;14.60;99.90;;;;;;5009230;28;19983;-80
2022/09/11 01:50:36;;;;;;;;;;;14.60;99.90;;;;;;4993279;28;19925;-80
2022/09/11 01:53:05;;;;;;;;;;;14.60;99.90;;;;;;4994746;28;20224;-80
2022/09/11 01:55:58;;;;;;;;;;;14.60;99.90;;;;;;4994232;28;19925;-80
2022/09/11 01:58:28;;;;;;;;;;;14.60;99.90;;;;;;4986145;28;19925;-80
2022/09/11 02:00:58;;;;;;;;;;;14.60;99.90;;;;;;5007516;28;20535;-81
2022/09/11 02:03:26;;;;;;;;;;;14.50;99.90;;;;;;4992139;28;19925;-80
2022/09/11 02:08:57;;;;;;;;;;;14.40;99.90;;;;;;5080352;23;19933;-79
2022/09/11 02:11:27;;;;;;;;;;;14.40;99.90;;;;;;4986839;28;20272;-80
2022/09/11 02:14:12;;;;;;;;;;;14.30;99.90;;;;;;4986725;28;20016;-79
2022/09/11 02:16:38;;;;;;;;;;;14.30;99.90;;;;;;4972470;28;20396;-79
2022/09/11 02:19:05;;;;;;;;;;;14.30;99.90;;;;;;4972171;28;19935;-79
2022/09/11 02:21:31;;;;;;;;;;;14.30;99.90;;;;;;4970798;28;20364;-79
2022/09/11 02:23:58;;;;;;;;;;;14.30;99.90;;;;;;4987195;28;19936;-79
2022/09/11 02:26:25;;;;;;;;;;;14.30;99.90;;;;;;4987387;28;19940;-79
2022/09/11 02:28:54;;;;;;;;;;;14.30;99.90;;;;;;4971641;28;20025;-80
2022/09/11 02:31:21;;;;;;;;;;;14.30;99.90;;;;;;4980459;28;20020;-80
2022/09/11 02:33:47;;;;;;;;;;;14.30;99.90;;;;;;4979692;28;19935;-80
2022/09/11 02:36:25;;;;;;;;;;;14.30;99.90;;;;;;4987460;28;19941;-79
2022/09/11 02:39:03;;;;;;;;;;;14.30;99.90;;;;;;4986440;28;20284;-79
2022/09/11 02:41:58;;;;;;;;;;;14.30;99.90;;;;;;4972395;28;19929;-80
2022/09/11 02:44:33;;;;;;;;;;;14.30;99.90;;;;;;4901860;28;20021;-79
2022/09/11 02:46:59;;;;;;;;;;;14.30;99.90;;;;;;4972471;28;19944;-79
2022/09/11 02:49:31;;;;;;;;;;;14.40;99.90;;;;;;4970987;28;20019;-79
2022/09/11 02:52:03;;;;;;;;;;;14.40;99.90;;;;;;4987943;28;19925;-80
2022/09/11 02:54:29;;;;;;;;;;;14.40;99.90;;;;;;4988619;28;20050;-79
2022/09/11 02:57:25;;;;;;;;;;;14.40;99.90;;;;;;4971727;28;20452;-79
2022/09/11 02:59:55;;;;;;;;;;;14.50;99.90;;;;;;4944623;28;19957;-79
2022/09/11 03:02:23;;;;;;;;;;;14.50;99.90;;;;;;4972082;28;20573;-79
2022/09/11 03:04:48;;;;;;;;;;;14.50;99.90;;;;;;4986365;28;19963;-79
2022/09/11 03:07:15;;;;;;;;;;;14.50;99.90;;;;;;4969012;28;20416;-79
2022/09/11 03:09:42;;;;;;;;;;;14.40;99.90;;;;;;4990721;28;20024;-79
2022/09/11 03:12:08;;;;;;;;;;;14.40;99.90;;;;;;5007001;28;20263;-79
2022/09/11 03:14:35;;;;;;;;;;;14.30;99.90;;;;;;5007425;28;19933;-79
2022/09/11 03:17:01;;;;;;;;;;;14.20;99.90;;;;;;4990880;28;20376;-79
2022/09/11 03:19:27;;;;;;;;;;;14.20;99.90;;;;;;4989389;28;19941;-78
2022/09/11 03:21:52;;;;;;;;;;;14.10;99.90;;;;;;4986023;28;19979;-81
2022/09/11 03:24:18;;;;;;;;;;;14.10;99.90;;;;;;4990119;28;19925;-79
2022/09/11 03:26:44;;;;;;;;;;;14.10;99.90;;;;;;5006736;28;20001;-79
2022/09/11 03:29:10;;;;;;;;;;;14.10;99.90;;;;;;4990526;28;19932;-78
2022/09/11 03:31:36;;;;;;;;;;;14.10;99.90;;;;;;4975491;28;19983;-78
2022/09/11 03:34:02;;;;;;;;;;;14.20;99.90;;;;;;5006429;28;19983;-78
2022/09/11 03:36:28;;;;;;;;;;;14.20;99.90;;;;;;4992927;28;20056;-80
2022/09/11 03:38:54;;;;;;;;;;;14.20;99.90;;;;;;5008947;28;19925;-79
2022/09/11 03:41:20;;;;;;;;;;;14.20;99.90;;;;;;4973564;28;20375;-80
2022/09/11 03:43:46;;;;;;;;;;;14.30;99.90;;;;;;5005671;28;19925;-78
2022/09/11 03:46:11;;;;;;;;;;;14.30;99.90;;;;;;5007981;28;20016;-82
2022/09/11 03:48:38;;;;;;;;;;;14.30;99.90;;;;;;5006505;28;19960;-79
2022/09/11 03:51:04;;;;;;;;;;;14.30;99.90;;;;;;5006498;28;19929;-78
2022/09/11 03:53:31;;;;;;;;;;;14.30;99.90;;;;;;5007093;28;19925;-80
2022/09/11 03:55:59;;;;;;;;;;;14.30;99.90;;;;;;5007583;28;19921;-81
2022/09/11 03:58:25;;;;;;;;;;;14.20;99.90;;;;;;5007084;28;19925;-78
2022/09/11 04:00:51;;;;;;;;;;;14.20;99.90;;;;;;5001942;28;19925;-79
2022/09/11 04:03:17;;;;;;;;;;;14.20;99.90;;;;;;5004172;28;19926;-78
2022/09/11 04:05:55;;;;;;;;;;;14.10;99.90;;;;;;4989832;28;19940;-78
2022/09/11 04:08:21;;;;;;;;;;;14.10;99.90;;;;;;5005405;28;19925;-80
2022/09/11 04:10:47;;;;;;;;;;;14.10;99.90;;;;;;5005696;28;20545;-80
2022/09/11 04:13:12;;;;;;;;;;;14.10;99.90;;;;;;4990449;28;19967;-79
2022/09/11 04:15:38;;;;;;;;;;;14.10;99.90;;;;;;4975167;28;19964;-80
2022/09/11 04:18:05;;;;;;;;;;;14.10;99.90;;;;;;5008327;28;19924;-81
2022/09/11 04:20:31;;;;;;;;;;;14.00;99.90;;;;;;5004342;28;20414;-80
2022/09/11 04:22:56;;;;;;;;;;;14.00;99.90;;;;;;4991548;28;19920;-79
2022/09/11 04:25:22;;;;;;;;;;;13.90;99.90;;;;;;4994641;28;19925;-89
2022/09/11 04:27:49;;;;;;;;;;;13.90;99.90;;;;;;4996879;28;19980;-80
2022/09/11 04:30:16;;;;;;;;;;;13.90;99.90;;;;;;5013088;28;19973;-86
2022/09/11 04:32:43;;;;;;;;;;;13.90;99.90;;;;;;5011294;28;19932;-88
2022/09/11 04:35:09;;;;;;;;;;;13.90;99.90;;;;;;4993526;28;20407;-85
2022/09/11 04:37:35;;;;;;;;;;;13.90;99.90;;;;;;5010335;28;19925;-80
2022/09/11 04:40:01;;;;;;;;;;;13.90;99.90;;;;;;4975943;28;19979;-79
2022/09/11 04:42:28;;;;;;;;;;;13.90;99.90;;;;;;4993238;28;19929;-79
2022/09/11 04:44:54;;;;;;;;;;;13.90;99.90;;;;;;4993991;28;20067;-79
2022/09/11 04:47:20;;;;;;;;;;;13.90;99.90;;;;;;4988548;28;20499;-79
2022/09/11 04:49:45;;;;;;;;;;;13.90;99.90;;;;;;5007805;28;20023;-79
2022/09/11 04:52:11;;;;;;;;;;;13.90;99.90;;;;;;4993166;28;19925;-80
2022/09/11 04:54:37;;;;;;;;;;;13.80;99.90;;;;;;5010009;28;19936;-79
2022/09/11 04:57:03;;;;;;;;;;;13.80;99.90;;;;;;5009897;28;19987;-79
2022/09/11 04:59:29;;;;;;;;;;;13.80;99.90;;;;;;4992047;28;20039;-79
2022/09/11 05:01:55;;;;;;;;;;;13.80;99.90;;;;;;4971080;28;19925;-79
2022/09/11 05:04:21;;;;;;;;;;;13.80;99.90;;;;;;4973393;28;19956;-80
2022/09/11 05:06:47;;;;;;;;;;;13.80;99.90;;;;;;4993037;28;19995;-79
2022/09/11 05:09:13;;;;;;;;;;;13.80;99.90;;;;;;4993310;28;19953;-79
2022/09/11 05:11:42;;;;;;;;;;;13.90;99.90;;;;;;4976990;28;19925;-82
2022/09/11 05:14:09;;;;;;;;;;;13.90;99.90;;;;;;5006371;28;20012;-84
2022/09/11 05:16:35;;;;;;;;;;;14.00;99.90;;;;;;4993242;28;20606;-80
2022/09/11 05:19:03;;;;;;;;;;;14.00;99.90;;;;;;4992571;28;19932;-79
2022/09/11 05:21:29;;;;;;;;;;;14.00;99.90;;;;;;5007791;28;19977;-80
2022/09/11 05:23:56;;;;;;;;;;;14.00;99.90;;;;;;4990824;28;19987;-81
2022/09/11 05:26:24;;;;;;;;;;;14.00;99.90;;;;;;4990549;28;19929;-80
2022/09/11 05:28:57;;;;;;;;;;;14.00;99.90;;;;;;4992528;28;19944;-79
2022/09/11 05:31:27;;;;;;;;;;;14.00;99.90;;;;;;4988707;28;19952;-79
2022/09/11 05:33:54;;;;;;;;;;;14.00;99.90;;;;;;5004974;28;19933;-79
2022/09/11 05:36:20;;;;;;;;;;;13.90;99.90;;;;;;5004067;28;19972;-79
2022/09/11 05:38:47;;;;;;;;;;;13.90;99.90;;;;;;5011217;28;20328;-79
2022/09/11 05:41:13;;;;;;;;;;;13.90;99.90;;;;;;4991377;28;19975;-79
2022/09/11 05:43:41;;;;;;;;;;;13.80;99.90;;;;;;5008353;28;19929;-80
2022/09/11 05:46:10;;;;;;;;;;;13.80;99.90;;;;;;5006903;28;19960;-85
2022/09/11 05:48:36;;;;;;;;;;;13.80;99.90;;;;;;5008089;28;19932;-78
2022/09/11 05:51:06;;;;;;;;;;;13.80;99.90;;;;;;4987681;28;19929;-79
2022/09/11 05:53:32;;;;;;;;;;;13.80;99.90;;;;;;4986036;28;19933;-79
2022/09/11 05:56:18;;;;;;;;;;;13.90;99.90;;;;;;4982668;28;19925;-79
2022/09/11 05:58:45;;;;;;;;;;;13.90;99.90;;;;;;5001366;28;19930;-78
2022/09/11 06:01:25;;;;;;;;;;;13.90;99.90;;;;;;5005790;28;20339;-79
2022/09/11 06:03:51;;;;;;;;;;;14.00;99.90;;;;;;4989100;28;19925;-78
2022/09/11 06:06:17;;;;;;;;;;;14.00;99.90;;;;;;4996006;28;19948;-78
2022/09/11 06:08:43;;;;;;;;;;;14.10;99.90;;;;;;4980697;28;19932;-78
2022/09/11 06:11:11;;;;;;;;;;;14.10;99.90;;;;;;5000961;28;20094;-79
2022/09/11 06:13:38;;;;;;;;;;;14.10;99.90;;;;;;4987328;28;19971;-80
2022/09/11 06:16:08;;;;;;;;;;;14.10;99.90;;;;;;5004238;28;20367;-78
2022/09/11 06:18:34;;;;;;;;;;;14.10;99.90;;;;;;4999116;28;20043;-78
2022/09/11 06:21:02;;;;;;;;;;;14.30;99.90;;;;;;4987667;28;19929;-78
2022/09/11 06:23:28;;;;;;;;;;;14.40;99.90;;;;;;4989172;28;19928;-79
2022/09/11 06:26:01;;;;;;;;;;;14.40;99.90;;;;;;4985228;28;19929;-79
2022/09/11 06:28:27;;;;;;;;;;;14.60;99.90;;;;;;5000973;28;19924;-79
2022/09/11 06:30:52;;;;;;;;;;;14.70;99.90;;;;;;4974665;28;20380;-79
2022/09/11 06:33:21;;;;;;;;;;;14.80;99.90;;;;;;5012128;28;19933;-83
2022/09/11 06:35:59;;;;;;;;;;;14.90;99.90;;;;;;4989723;28;20347;-79
2022/09/11 06:38:26;;;;;;;;;;;15.10;99.90;;;;;;4999512;28;20026;-79
2022/09/11 06:40:52;;;;;;;;;;;15.10;99.90;;;;;;4987633;28;19928;-79
2022/09/11 06:43:18;;;;;;;;;;;15.20;99.90;;;;;;4973572;28;19925;-81
2022/09/11 06:45:47;;;;;;;;;;;15.20;99.90;;;;;;4986670;28;19968;-83
2022/09/11 06:48:14;;;;;;;;;;;15.30;99.90;;;;;;4988045;28;19963;-80
2022/09/11 06:50:40;;;;;;;;;;;15.40;99.90;;;;;;4989096;28;19932;-80
2022/09/11 06:53:06;;;;;;;;;;;15.50;99.90;;;;;;4971499;28;19925;-79
2022/09/11 06:55:32;;;;;;;;;;;15.60;99.90;;;;;;4985124;28;19933;-81
2022/09/11 06:57:58;;;;;;;;;;;15.70;99.90;;;;;;4969188;28;20027;-79
2022/09/11 07:00:24;;;;;;;;;;;15.90;99.90;;;;;;4981328;28;19966;-80
2022/09/11 07:02:51;;;;;;;;;;;16.00;99.90;;;;;;4984375;28;19972;-79
2022/09/11 07:05:17;;;;;;;;;;;16.10;99.90;;;;;;4969358;28;19936;-81
2022/09/11 07:07:44;;;;;;;;;;;16.30;99.90;;;;;;5000185;28;20307;-79
2022/09/11 07:10:09;;;;;;;;;;;16.40;99.90;;;;;;4965281;28;19933;-82
2022/09/11 07:12:37;;;;;;;;;;;16.60;99.90;;;;;;4976126;28;20402;-81
2022/09/11 07:15:05;;;;;;;;;;;16.70;99.90;;;;;;4977478;28;19940;-83
2022/09/11 07:17:30;;;;;;;;;;;16.90;99.90;;;;;;4982509;28;20063;-82
2022/09/11 07:19:57;;;;;;;;;;;17.00;99.90;;;;;;4980498;28;20028;-81
2022/09/11 07:22:23;;;;;;;;;;;17.30;99.90;;;;;;4999225;28;19933;-82
2022/09/11 07:24:51;;;;;;;;;;;17.70;99.90;;;;;;4988813;28;20004;-82
2022/09/11 07:27:20;;;;;;;;;;;17.90;99.90;;;;;;4994812;28;19932;-82
2022/09/11 07:29:47;;;;;;;;;;;17.50;99.90;;;;;;4986871;28;20003;-85
2022/09/11 07:32:14;;;;;;;;;;;18.10;99.90;;;;;;5005947;28;19968;-81
2022/09/11 07:34:40;;;;;;;;;;;18.90;99.90;;;;;;4989550;28;19997;-83
2022/09/11 07:37:06;;;;;;;;;;;;;;;;;;5003301;28;20403;-82
2022/09/11 07:39:33;;;;;;;;;;;19.60;99.90;;;;;;4995433;28;19973;-86
2022/09/11 07:42:00;;;;;;;;;;;19.70;99.90;;;;;;4979466;28;20237;-84
2022/09/11 07:44:26;;;;;;;;;;;;;;;;;;5000330;28;19925;-84
2022/09/11 07:46:52;;;;;;;;;;;19.70;99.90;;;;;;4991941;28;19933;-87
2022/09/11 07:49:18;;;;;;;;;;;19.70;99.90;;;;;;5011982;28;20317;-85
2022/09/11 07:51:45;;;;;;;;;;;19.70;99.90;;;;;;4987284;28;19933;-86
2022/09/11 07:54:10;;;;;;;;;;;19.90;99.90;;;;;;5009396;28;19935;-83
2022/09/11 07:56:36;;;;;;;;;;;20.40;99.90;;;;;;4984004;28;20548;-83
2022/09/11 07:59:06;;;;;;;;;;;20.90;99.90;;;;;;4988326;28;19933;-85
2022/09/11 08:01:32;;;;;;;;;;;21.60;99.90;;;;;;4992837;28;19983;-86
2022/09/11 08:03:59;;;;;;;;;;;22.30;99.90;;;;;;5008385;28;19925;-84
2022/09/11 08:06:26;;;;;;;;;;;23.00;99.90;;;;;;4993550;28;20354;-84
2022/09/11 08:08:53;;;;;;;;;;;24.10;99.90;;;;;;5006217;28;20004;-84
2022/09/11 08:11:19;;;;;;;;;;;24.20;99.90;;;;;;4990610;28;20272;-83
2022/09/11 08:13:52;;;;;;;;;;;24.80;99.90;;;;;;5008517;28;20012;-85
2022/09/11 08:16:18;;;;;;;;;;;25.20;99.90;;;;;;5009049;28;19932;-83
2022/09/11 08:18:44;;;;;;;;;;;25.40;99.90;;;;;;4988974;28;19925;-84
2022/09/11 08:21:11;;;;;;;;;;;25.50;99.90;;;;;;4993798;28;19921;-83
2022/09/11 08:23:41;;;;;;;;;;;25.70;99.90;;;;;;5004872;28;19943;-83
2022/09/11 08:26:08;;;;;;;;;;;25.60;99.90;;;;;;5001824;28;19929;-83
2022/09/11 08:28:35;;;;;;;;;;;24.90;99.90;;;;;;5004061;28;19925;-83
2022/09/11 08:31:02;;;;;;;;;;;24.00;99.90;;;;;;4987011;28;19929;-84
2022/09/11 08:33:28;;;;;;;;;;;23.30;99.90;;;;;;4987292;28;19925;-83
2022/09/11 08:35:56;;;;;;;;;;;23.20;99.90;;;;;;5005290;28;19987;-83
2022/09/11 08:38:23;;;;;;;;;;;23.30;99.90;;;;;;4990003;28;19947;-82
2022/09/11 08:40:49;;;;;;;;;;;23.20;99.90;;;;;;4980270;28;19933;-82
2022/09/11 08:43:20;;;;;;;;;;;22.90;99.90;;;;;;4984980;28;20392;-83
2022/09/11 08:45:50;;;;;;;;;;;22.80;99.90;;;;;;5004378;28;19933;-83
2022/09/11 08:48:20;;;;;;;;;;;22.70;99.90;;;;;;4990130;28;19959;-82
2022/09/11 08:50:48;;;;;;;;;;;22.80;99.90;;;;;;4984878;28;19941;-82
2022/09/11 08:53:17;;;;;;;;;;;22.80;99.90;;;;;;4986083;28;20055;-82
2022/09/11 08:55:45;;;;;;;;;;;22.70;99.90;;;;;;5001637;28;19991;-83
2022/09/11 08:58:17;;;;;;;;;;;22.80;99.90;;;;;;5005564;28;20012;-83
2022/09/11 09:00:50;;;;;;;;;;;22.70;99.90;;;;;;4987542;28;19925;-83
2022/09/11 09:03:39;;;;;;;;;;;22.70;99.90;;;;;;4987214;28;19925;-84
2022/09/11 09:06:07;;;;;;;;;;;22.60;99.90;;;;;;5004940;28;19937;-83
2022/09/11 09:08:52;;;;;;;;;;;22.50;99.90;;;;;;4991221;28;19929;-84
2022/09/11 09:11:27;;;;;;;;;;;22.50;99.90;;;;;;5007005;28;19932;-83
2022/09/11 09:14:09;;;;;;;;;;;22.60;99.90;;;;;;4988660;28;19933;-84
2022/09/11 09:16:45;;;;;;;;;;;22.50;99.90;;;;;;4989164;28;20029;-84
2022/09/11 09:19:14;;;;;;;;;;;22.30;99.90;;;;;;4986267;28;20521;-83
2022/09/11 09:21:46;;;;;;;;;;;22.00;99.90;;;;;;4980752;28;19941;-83
2022/09/11 09:24:18;;;;;;;;;;;21.80;99.90;;;;;;5004186;28;20411;-83
2022/09/11 09:26:48;;;;;;;;;;;21.60;99.90;;;;;;4986008;28;20043;-83
2022/09/11 09:29:16;;;;;;;;;;;21.70;99.90;;;;;;4979719;28;20396;-83
2022/09/11 09:31:43;;;;;;;;;;;21.70;99.90;;;;;;5004694;28;20044;-83
2022/09/11 09:34:17;;;;;;;;;;;21.80;99.90;;;;;;5003821;28;19972;-83
2022/09/11 09:36:43;;;;;;;;;;;21.70;99.90;;;;;;4985443;28;20390;-83
2022/09/11 09:39:11;;;;;;;;;;;21.40;99.90;;;;;;4986381;28;19986;-84
2022/09/11 09:41:59;;;;;;;;;;;21.50;99.90;;;;;;4994188;28;19920;-86
2022/09/11 09:44:34;;;;;;;;;;;21.60;99.90;;;;;;4986691;28;20299;-84
2022/09/11 09:46:59;;;;;;;;;;;21.60;99.90;;;;;;4984580;28;20472;-84
2022/09/11 09:49:33;;;;;;;;;;;21.70;99.90;;;;;;4986600;28;20008;-84
2022/09/11 09:52:15;;;;;;;;;;;21.50;99.90;;;;;;4982717;28;20005;-84
2022/09/11 09:54:50;;;;;;;;;;;21.40;99.90;;;;;;4990105;28;19925;-83
2022/09/11 09:57:20;;;;;;;;;;;21.20;99.90;;;;;;5022023;28;19960;-83
2022/09/11 09:59:49;;;;;;;;;;;21.00;99.90;;;;;;4997784;28;20368;-83
2022/09/11 10:02:37;;;;;;;;;;;20.80;99.90;;;;;;5002373;28;19969;-82
2022/09/11 10:05:20;;;;;;;;;;;20.60;99.90;;;;;;4985100;28;19941;-80
2022/09/11 10:07:47;;;;;;;;;;;20.40;99.90;;;;;;5000739;28;19952;-80
2022/09/11 10:10:20;;;;;;;;;;;20.20;99.90;;;;;;4970084;28;20480;-81
2022/09/11 10:12:46;;;;;;;;;;;20.00;99.90;;;;;;4986822;28;19925;-80
2022/09/11 10:15:17;;;;;;;;;;;19.90;99.90;;;;;;4989291;28;19925;-81
2022/09/11 10:17:43;;;;;;;;;;;19.80;99.90;;;;;;4967712;28;19933;-79
2022/09/11 10:20:18;;;;;;;;;;;19.70;99.90;;;;;;4952537;28;19940;-81
2022/09/11 10:22:44;;;;;;;;;;;19.60;99.90;;;;;;4965019;28;20513;-79
2022/09/11 10:25:12;;;;;;;;;;;19.40;99.90;;;;;;4953390;28;19929;-80
2022/09/11 10:27:42;;;;;;;;;;;19.40;99.90;;;;;;4971993;28;19926;-80
2022/09/11 10:30:22;;;;;;;;;;;19.40;99.90;;;;;;4980785;28;19930;-79
2022/09/11 10:32:48;;;;;;;;;;;19.40;99.90;;;;;;4967870;28;19930;-80
2022/09/11 10:35:15;;;;;;;;;;;19.40;99.90;;;;;;4969396;28;19932;-79
2022/09/11 10:37:42;;;;;;;;;;;19.40;99.90;;;;;;4985007;28;19929;-80
2022/09/11 10:40:18;;;;;;;;;;;19.40;99.90;;;;;;4967145;28;19928;-80
2022/09/11 10:42:51;;;;;;;;;;;19.40;99.90;;;;;;4968695;28;19929;-80
2022/09/11 10:45:20;;;;;;;;;;;19.40;99.90;;;;;;4974061;28;19922;-79
2022/09/11 10:47:47;;;;;;;;;;;19.30;99.90;;;;;;4971597;28;20514;-80
2022/09/11 10:50:16;;;;;;;;;;;19.20;99.90;;;;;;4963021;28;19926;-80
2022/09/11 10:52:57;;;;;;;;;;;19.30;99.90;;;;;;4964669;28;19929;-80
2022/09/11 10:55:25;;;;;;;;;;;19.40;99.90;;;;;;4965113;28;20432;-80
2022/09/11 10:57:57;;;;;;;;;;;19.40;99.90;;;;;;4965974;28;19987;-80
2022/09/11 11:00:24;;;;;;;;;;;19.40;99.90;;;;;;4963580;28;19935;-80
2022/09/11 11:02:53;;;;;;;;;;;19.50;99.90;;;;;;4967430;28;20008;-81
2022/09/11 11:05:23;;;;;;;;;;;19.60;99.90;;;;;;4975147;28;20542;-79
2022/09/11 11:08:08;;;;;;;;;;;19.70;99.90;;;;;;4966655;28;19929;-82
2022/09/11 11:10:38;;;;;;;;;;;19.90;99.90;;;;;;4982720;28;19933;-81
2022/09/11 11:13:22;;;;;;;;;;;20.10;99.90;;;;;;5000705;28;20431;-81
2022/09/11 11:16:12;;;;;;;;;;;20.40;99.90;;;;;;4999426;28;19929;-81
2022/09/11 11:18:50;;;;;;;;;;;20.80;99.90;;;;;;4957286;28;20442;-83
2022/09/11 11:21:41;;;;;;;;;;;21.00;99.90;;;;;;5001966;28;19944;-82
2022/09/11 11:24:31;;;;;;;;;;;21.10;99.90;;;;;;4983027;28;19987;-84
2022/09/11 11:27:00;;;;;;;;;;;21.20;99.90;;;;;;4998287;28;19957;-83
2022/09/11 11:29:44;;;;;;;;;;;21.50;99.90;;;;;;5000759;28;19933;-81
2022/09/11 11:32:26;;;;;;;;;;;21.80;99.90;;;;;;5001168;28;19929;-79
2022/09/11 11:35:00;;;;;;;;;;;22.00;99.90;;;;;;4995210;28;19930;-81
2022/09/11 11:37:45;;;;;;;;;;;22.20;99.90;;;;;;4980148;28;19929;-83
2022/09/11 11:40:11;;;;;;;;;;;22.50;99.90;;;;;;4980077;28;19972;-81
2022/09/11 11:42:50;;;;;;;;;;;22.70;99.90;;;;;;5000252;28;19961;-83
2022/09/11 11:45:20;;;;;;;;;;;22.90;99.90;;;;;;4986526;28;19929;-82
2022/09/11 11:47:47;;;;;;;;;;;22.70;99.90;;;;;;4998464;28;19977;-82
2022/09/11 11:50:20;;;;;;;;;;;22.40;99.90;;;;;;4981909;28;19940;-83
2022/09/11 11:52:56;;;;;;;;;;;22.20;99.90;;;;;;4982886;28;19929;-83
2022/09/11 11:55:26;;;;;;;;;;;21.90;99.90;;;;;;4995208;28;20032;-82
2022/09/11 11:58:03;;;;;;;;;;;21.90;99.90;;;;;;4982910;28;19926;-83
2022/09/11 12:00:36;;;;;;;;;;;21.80;99.90;;;;;;4982860;28;19956;-80
2022/09/11 12:03:14;;;;;;;;;;;21.90;99.90;;;;;;5001075;28;19967;-80
2022/09/11 12:05:40;;;;;;;;;;;22.00;99.90;;;;;;4981855;28;19948;-80
2022/09/11 12:08:11;;;;;;;;;;;22.10;99.90;;;;;;4964836;28;20472;-84
2022/09/11 12:10:38;;;;;;;;;;;22.20;99.90;;;;;;5000512;28;20447;-82
2022/09/11 12:13:19;;;;;;;;;;;22.40;99.90;;;;;;4973134;28;19940;-83
2022/09/11 12:16:03;;;;;;;;;;;22.40;99.90;;;;;;4995071;28;20026;-82
2022/09/11 12:18:30;;;;;;;;;;;22.30;99.90;;;;;;4983975;28;19976;-81
2022/09/11 12:21:34;;;;;;;;;;;22.20;99.90;;;;;;4983642;28;20015;-80
2022/09/11 12:24:00;;;;;;;;;;;22.00;99.90;;;;;;4909442;29;19949;-82
2022/09/11 12:26:26;;;;;;;;;;;22.00;99.90;;;;;;4902993;29;21523;-85
2022/09/11 12:29:11;;;;;;;;;;;22.00;99.90;;;;;;4951512;28;19925;-81
2022/09/11 12:31:57;;;;;;;;;;;21.80;99.90;;;;;;4989411;28;19993;-81
2022/09/11 12:34:46;;;;;;;;;;;21.60;99.90;;;;;;4988757;28;19940;-81
2022/09/11 12:37:16;;;;;;;;;;;21.50;99.90;;;;;;4998331;28;20217;-82
2022/09/11 12:39:49;;;;;;;;;;;21.30;99.90;;;;;;4981571;28;19951;-80
2022/09/11 12:42:26;;;;;;;;;;;21.20;99.90;;;;;;4996758;28;19935;-80
2022/09/11 12:44:53;;;;;;;;;;;21.10;99.90;;;;;;4984706;28;19929;-79
2022/09/11 12:47:32;;;;;;;;;;;21.00;99.90;;;;;;4986877;28;20392;-82
2022/09/11 12:50:11;;;;;;;;;;;20.90;99.90;;;;;;4986718;28;19929;-80
2022/09/11 12:52:47;;;;;;;;;;;20.80;99.90;;;;;;4985155;28;19935;-81
2022/09/11 12:55:34;;;;;;;;;;;20.80;99.90;;;;;;4985662;28;19929;-79
2022/09/11 12:58:02;;;;;;;;;;;20.90;99.90;;;;;;4984646;28;19948;-80
2022/09/11 13:00:39;;;;;;;;;;;21.00;99.90;;;;;;4996799;28;19929;-80
2022/09/11 13:03:07;;;;;;;;;;;21.20;99.90;;;;;;5000357;28;20327;-80
2022/09/11 13:05:36;;;;;;;;;;;21.30;99.90;;;;;;5003717;28;19937;-79
2022/09/11 13:08:27;;;;;;;;;;;21.40;99.90;;;;;;4985385;28;19987;-80
2022/09/11 13:11:13;;;;;;;;;;;21.40;99.90;;;;;;4985978;28;19932;-80
2022/09/11 13:13:42;;;;;;;;;;;21.40;99.90;;;;;;4967520;28;19926;-82
2022/09/11 13:16:28;;;;;;;;;;;21.40;99.90;;;;;;4966307;28;19929;-80
2022/09/11 13:18:59;;;;;;;;;;;21.40;99.90;;;;;;4974884;28;19930;-83
2022/09/11 13:21:25;;;;;;;;;;;21.40;99.90;;;;;;4968612;28;19929;-84
2022/09/11 13:23:51;;;;;;;;;;;21.40;99.90;;;;;;4967677;28;19956;-82
2022/09/11 13:26:25;;;;;;;;;;;21.40;99.90;;;;;;4966362;28;19933;-81
2022/09/11 13:28:52;;;;;;;;;;;21.30;99.90;;;;;;4969157;28;19940;-80
2022/09/11 13:31:24;;;;;;;;;;;21.30;99.90;;;;;;4970623;28;20028;-79
2022/09/11 13:33:50;;;;;;;;;;;21.30;99.90;;;;;;4980688;28;19929;-81
2022/09/11 13:36:37;;;;;;;;;;;21.30;99.90;;;;;;4954480;28;19932;-82
2022/09/11 13:39:03;;;;;;;;;;;21.30;99.90;;;;;;4988281;28;19984;-83
2022/09/11 13:41:31;;;;;;;;;;;21.30;99.90;;;;;;4968628;28;19933;-79
2022/09/11 13:43:59;;;;;;;;;;;21.30;99.90;;;;;;4985018;28;19929;-80
2022/09/11 13:46:26;;;;;;;;;;;21.20;99.90;;;;;;4986409;28;20533;-80
2022/09/11 13:48:58;;;;;;;;;;;21.20;99.90;;;;;;4979002;28;19937;-80
2022/09/11 13:51:28;;;;;;;;;;;21.20;99.90;;;;;;4967791;28;19952;-81
2022/09/11 13:53:57;;;;;;;;;;;21.30;99.90;;;;;;4983115;28;20467;-81
2022/09/11 13:56:35;;;;;;;;;;;21.30;99.90;;;;;;4984925;28;19936;-77
2022/09/11 13:59:21;;;;;;;;;;;21.20;99.90;;;;;;4969758;28;19930;-79
2022/09/11 14:01:55;;;;;;;;;;;21.20;99.90;;;;;;4937078;28;19929;-80
2022/09/11 14:04:21;;;;;;;;;;;21.10;99.90;;;;;;4988306;28;20028;-79
2022/09/11 14:06:47;;;;;;;;;;;21.00;99.90;;;;;;4969223;28;20067;-82
2022/09/11 14:09:19;;;;;;;;;;;21.00;99.90;;;;;;4983305;28;19929;-81
2022/09/11 14:11:45;;;;;;;;;;;21.00;99.90;;;;;;4991610;28;19976;-83
2022/09/11 14:14:23;;;;;;;;;;;20.90;99.90;;;;;;4986671;28;19929;-80
2022/09/11 14:16:53;;;;;;;;;;;20.90;99.90;;;;;;4989097;28;19933;-84
2022/09/11 14:19:21;;;;;;;;;;;20.80;99.90;;;;;;5006875;28;19940;-81
2022/09/11 14:21:48;;;;;;;;;;;20.80;99.90;;;;;;5007178;28;19944;-80
2022/09/11 14:24:37;;;;;;;;;;;20.80;99.90;;;;;;4989818;28;20425;-79
2022/09/11 14:27:24;;;;;;;;;;;20.60;99.90;;;;;;5006687;28;20275;-79
2022/09/11 14:29:50;;;;;;;;;;;;;;;;;;4986474;28;19925;-79
2022/09/11 14:32:33;;;;;;;;;;;20.80;99.90;;;;;;4992022;28;20028;-79
2022/09/11 14:35:03;;;;;;;;;;;20.70;99.90;;;;;;5003889;28;19979;-81
2022/09/11 14:37:33;;;;;;;;;;;20.80;99.90;;;;;;4985503;28;20042;-80
2022/09/11 14:40:01;;;;;;;;;;;20.80;99.90;;;;;;4988082;28;20303;-81